Aeroporto :
LOGIN :

Iscrizione | Disclaimer

   EN    FR    IT 

 










Sommario :    VFR   VFR Marginale   IFR   IFR Intensivo   IFR Molto Intensivo
Visibilità : 
Base nubi : 
>= 8 km
>= 3000ft
5 / 8 km
1000 / 3000 ft
1500m / 5 km
500 / 1000 ft
800 / 1500m
200 / 500 ft
< 800m
< 200 ft
Simboli :   Temporali  Nebbia  Neve Forte  Precipitazioni Forti  Vento > 20 kt
SIGMETs :   Varie  Temporali  Ghiacco  Turbolenza  Onda orograficha  Ceneri Vulcaniche






- Altitudine del aeroporto : 1 ft


EGCK - Caernarfon

ULTIMO METAR :
  • 191520Z 16016KT 9999 BKN040 09/05 Q1009

METARs OBSOLETI :
  • 191450Z 16016KT 9999 BKN042 09/05 Q1009
  • 191420Z 17018KT 9999 VCSH FEW032 SCT046 10/05 Q1010
  • 191350Z 17018KT 9999 VCSH FEW035 SCT044 10/05 Q1010
  • 191320Z 17018G28KT 9999 BKN032 10/05 Q1010
  • 191250Z 16016KT 9999 FEW032 BKN042 10/05 Q1010

TAF TAF EGCK
Valido dal 19 a 15 ore il 20 a 00 ore UTC


191359Z 1915/1924 15015G25KT 9999 SCT030
PROB30
TEMPO 1915/1924 7000 -RA



MetMap, La meteo Aeronautica in un colpo d'occhio ! - Copyright ORBIFLY Dicembre 2007 - Disclaimer

ORBIFLY MET'MAP TEAM :

Programmazione e sviluppo : Alexandra Zaïnal
Concezione e sviluppo : Baudouin d'Aumeries
Co-Programmazione e sviluppo : Marc-Olivier Méhu
Supporto tecnico e logistico : Manuel Goepfert
Aiuto per la traduzione : Arnaldo La Scala

Contatto : metmap@orbifly.com




FONTI E CREDITI :

   NOAA